Time;durP1;ratioP1;P1;durP2;ratioP2;P2;SDS_P1;SDS_P2;PMS_P1;PMS_P2;Temp;Humidity;BMP_temperature;BMP_pressure;BME280_temperature;BME280_humidity;BME280_pressure;Samples;Min_cycle;Max_cycle;Signal;HPM_P1;HPM_P2
2023/01/21 00:00:39;;;;;;;3.47;2.63;;;;;;;3.90;100.00;-23925.38;5074810;28;20257;-76
2023/01/21 00:03:04;;;;;;;5.23;3.43;;;;;;;3.98;100.00;-23927.66;5072997;28;20175;-77
2023/01/21 00:05:30;;;;;;;5.33;3.10;;;;;;;3.87;100.00;-23924.38;5074290;28;20226;-77
2023/01/21 00:07:55;;;;;;;10.17;3.63;;;;;;;3.63;100.00;-23917.53;5072786;28;20256;-76
2023/01/21 00:10:21;;;;;;;6.17;3.50;;;;;;;3.44;100.00;-23912.41;5073166;28;20558;-76
2023/01/21 00:12:46;;;;;;;3.87;2.83;;;;;;;3.43;100.00;-23911.97;5072442;28;20194;-77
2023/01/21 00:15:14;;;;;;;6.17;3.07;;;;;;;3.81;100.00;-23922.81;5072844;28;20239;-78
2023/01/21 00:17:49;;;;;;;9.67;3.90;;;;;;;3.67;100.00;-23918.69;5074348;28;20178;-78
2023/01/21 00:20:19;;;;;;;7.27;4.03;;;;;;;3.58;100.00;-23916.13;5072354;28;20185;-79
2023/01/21 00:22:56;;;;;;;14.10;5.07;;;;;;;3.56;100.00;-23915.69;5072852;28;20178;-77
2023/01/21 00:25:26;;;;;;;6.63;3.53;;;;;;;3.53;100.00;-23914.84;5074258;28;20672;-77
2023/01/21 00:27:53;;;;;;;5.83;3.50;;;;;;;3.51;100.00;-23914.41;5074535;28;20286;-78
2023/01/21 00:30:22;;;;;;;6.60;3.37;;;;;;;3.55;100.00;-23915.41;5072598;28;20174;-77
2023/01/21 00:33:41;;;;;;;4.70;3.07;;;;;;;3.45;100.00;-23912.69;5073627;28;20566;-76
2023/01/21 00:36:28;;;;;;;5.40;3.57;;;;;;;3.36;100.00;-23910.00;5073149;28;20182;-76
2023/01/21 00:39:08;;;;;;;6.07;3.80;;;;;;;3.18;100.00;-23905.00;5072108;28;20181;-77
2023/01/21 00:41:44;;;;;;;3.90;2.87;;;;;;;3.31;100.00;-23908.56;5073522;28;20177;-78
2023/01/21 00:44:25;;;;;;;3.77;2.63;;;;;;;3.28;100.00;-23907.84;5072024;28;20197;-77
2023/01/21 00:47:00;;;;;;;16.13;3.40;;;;;;;3.31;100.00;-23908.72;5071239;28;20324;-75
2023/01/21 00:49:45;;;;;;;7.30;3.93;;;;;;;3.33;100.00;-23909.28;5072978;28;20208;-74
2023/01/21 00:52:24;;;;;;;5.43;3.50;;;;;;;3.22;100.00;-23906.00;5072134;28;20187;-75
2023/01/21 00:55:44;;;;;;;4.70;3.33;;;;;;;2.84;100.00;-23895.28;5072567;28;20196;-77
2023/01/21 00:59:03;;;;;;;4.07;2.63;;;;;;;3.15;100.00;-23904.00;5051275;28;20202;-77
2023/01/21 01:01:41;;;;;;;4.37;3.00;;;;;;;3.18;100.00;-23904.84;5053198;28;20300;-76
2023/01/21 01:04:37;;;;;;;6.20;2.70;;;;;;;3.29;100.00;-23908.13;5053682;28;20178;-78
2023/01/21 01:07:35;;;;;;;4.23;2.83;;;;;;;3.03;100.00;-23900.88;5052885;28;20581;-75
2023/01/21 01:10:33;;;;;;;5.60;3.23;;;;;;;2.45;100.00;-23884.31;5065183;28;20177;-76
2023/01/21 01:13:10;;;;;;;4.90;3.03;;;;;;;2.88;100.00;-23896.44;5072204;28;20158;-77
2023/01/21 01:15:50;;;;;;;3.13;2.57;;;;;;;2.96;100.00;-23898.72;5071308;28;20233;-76
2023/01/21 01:18:46;;;;;;;4.43;3.00;;;;;;;2.94;100.00;-23898.16;5070100;28;20276;-76
2023/01/21 01:22:15;;;;;;;7.53;3.30;;;;;;;2.97;100.00;-23899.16;5070868;28;20198;-76
2023/01/21 01:24:49;;;;;;;6.63;3.37;;;;;;;2.87;100.00;-23896.28;5072595;28;20189;-76
2023/01/21 01:27:16;;;;;;;4.77;3.53;;;;;;;2.84;100.00;-23895.44;5071249;28;20601;-76
2023/01/21 01:29:43;;;;;;;4.93;3.20;;;;;;;2.65;100.00;-23890.16;5072101;28;20188;-76
2023/01/21 01:32:11;;;;;;;5.83;3.63;;;;;;;2.40;100.00;-23883.03;5070502;28;20193;-75
2023/01/21 01:34:38;;;;;;;17.77;3.70;;;;;;;2.81;100.00;-23894.59;5072688;28;20201;-77
2023/01/21 01:37:06;;;;;;;5.67;3.60;;;;;;;2.63;100.00;-23889.59;5072460;28;20763;-77
2023/01/21 01:39:32;;;;;;;3.17;2.40;;;;;;;2.71;100.00;-23891.72;5069690;28;20178;-76
2023/01/21 01:41:59;;;;;;;6.90;3.50;;;;;;;2.74;100.00;-23892.44;5072202;28;20170;-77
2023/01/21 01:44:56;;;;;;;5.30;2.50;;;;;;;2.69;100.00;-23891.16;5071990;28;20261;-77
2023/01/21 01:47:31;;;;;;;4.73;3.07;;;;;;;2.63;100.00;-23889.44;5069690;28;20757;-76
2023/01/21 01:50:02;;;;;;;4.17;2.53;;;;;;;2.63;100.00;-23889.44;5071129;28;20201;-76
2023/01/21 01:52:30;;;;;;;3.17;2.17;;;;;;;2.55;100.00;-23887.31;5068158;28;20196;-75
2023/01/21 01:55:01;;;;;;;5.97;3.07;;;;;;;2.16;100.00;-23876.16;5070018;28;20197;-77
2023/01/21 01:57:35;;;;;;;3.77;2.80;;;;;;;2.50;100.00;-23885.88;5072225;28;20174;-76
2023/01/21 02:00:06;;;;;;;5.47;3.43;;;;;;;2.51;100.00;-23886.16;5072848;28;20229;-76
2023/01/21 02:02:37;;;;;;;7.93;3.70;;;;;;;2.50;100.00;-23885.72;5071049;28;20576;-76
2023/01/21 02:05:07;;;;;;;5.77;4.00;;;;;;;2.55;100.00;-23887.16;5071624;28;20220;-75
2023/01/21 02:07:39;;;;;;;7.13;3.40;;;;;;;2.54;100.00;-23886.88;5072163;28;20208;-76
2023/01/21 02:10:13;;;;;;;4.17;2.93;;;;;;;2.13;100.00;-23875.31;5072061;28;20181;-76
2023/01/21 02:12:43;;;;;;;4.07;2.73;;;;;;;2.60;100.00;-23888.59;5072038;28;20185;-75
2023/01/21 02:15:11;;;;;;;5.60;3.00;;;;;;;2.38;100.00;-23882.44;5071899;28;20245;-76
2023/01/21 02:18:07;;;;;;;5.10;3.27;;;;;;;2.03;100.00;-23872.47;5071682;28;20197;-76
2023/01/21 02:21:24;;;;;;;6.90;3.13;;;;;;;2.08;100.00;-23874.03;5069728;28;20168;-76
2023/01/21 02:24:11;;;;;;;5.43;3.43;;;;;;;2.47;100.00;-23885.03;5027983;28;20572;-76
2023/01/21 02:27:25;;;;;;;4.57;2.63;;;;;;;2.43;100.00;-23883.75;5071932;28;20205;-75
2023/01/21 02:30:26;;;;;;;5.00;3.00;;;;;;;2.38;100.00;-23882.31;5071762;28;20174;-77
2023/01/21 02:33:18;;;;;;;5.47;2.50;;;;;;;2.42;100.00;-23883.59;5071961;28;20172;-76
2023/01/21 02:36:25;;;;;;;4.37;2.90;;;;;;;2.42;100.00;-23883.44;5069671;28;20174;-77
2023/01/21 02:39:19;;;;;;;3.00;2.60;;;;;;;2.31;100.00;-23880.47;5052361;28;20171;-76
2023/01/21 02:41:51;;;;;;;5.83;3.70;;;;;;;2.38;100.00;-23882.44;5055874;28;20170;-77
2023/01/21 02:44:43;;;;;;;5.93;3.93;;;;;;;2.32;100.00;-23880.59;5068125;28;20193;-76
2023/01/21 02:47:24;;;;;;;7.80;3.13;;;;;;;2.37;100.00;-23882.16;5074210;28;20213;-76
2023/01/21 02:50:01;;;;;;;4.83;3.10;;;;;;;2.33;100.00;-23881.03;5075288;28;20169;-75
2023/01/21 02:52:27;;;;;;;3.93;2.90;;;;;;;2.09;100.00;-23874.31;5074809;28;20267;-76
2023/01/21 02:54:58;;;;;;;3.67;2.83;;;;;;;1.88;100.00;-23868.16;5074945;28;20212;-76
2023/01/21 02:57:30;;;;;;;7.57;2.77;;;;;;;1.99;100.00;-23871.31;5074701;28;20185;-76
2023/01/21 02:59:56;;;;;;;3.13;2.80;;;;;;;2.11;100.00;-23874.75;5075126;28;20200;-77
2023/01/21 03:02:21;;;;;;;5.67;3.47;;;;;;;2.10;100.00;-23874.47;5073854;28;20197;-76
2023/01/21 03:05:07;;;;;;;6.73;2.83;;;;;;;1.65;100.00;-23861.75;5074628;28;20547;-75
2023/01/21 03:07:34;;;;;;;4.87;3.30;;;;;;;1.74;100.00;-23864.47;5074597;28;20190;-75
2023/01/21 03:10:09;;;;;;;2.60;2.40;;;;;;;2.05;100.00;-23873.16;5075287;28;20226;-74
2023/01/21 03:12:41;;;;;;;5.63;2.93;;;;;;;2.09;100.00;-23874.16;5075419;28;20203;-77
2023/01/21 03:18:35;;;;;;;3.50;2.60;;;;;;;1.70;100.00;-23863.16;5075197;28;20285;-76
2023/01/21 03:21:06;;;;;;;4.63;3.47;;;;;;;1.48;100.00;-23856.88;5070969;28;20190;-75
2023/01/21 03:23:46;;;;;;;4.27;3.10;;;;;;;1.51;100.00;-23857.88;5074308;28;20182;-77
2023/01/21 03:26:15;;;;;;;8.20;3.70;;;;;;;1.77;100.00;-23865.31;5066237;28;20231;-75
2023/01/21 03:28:44;;;;;;;10.47;4.17;;;;;;;1.26;100.00;-23850.72;5073398;28;20190;-76
2023/01/21 03:31:16;;;;;;;7.30;3.33;;;;;;;1.55;100.00;-23859.03;5074870;28;20187;-76
2023/01/21 03:33:44;;;;;;;5.37;3.53;;;;;;;1.53;100.00;-23858.31;5074827;28;20186;-76
2023/01/21 03:36:40;;;;;;;6.53;4.10;;;;;;;1.57;100.00;-23859.47;5074481;28;20341;-78
2023/01/21 03:39:46;;;;;;;4.37;3.13;;;;;;;1.46;100.00;-23856.31;5074661;28;20255;-77
2023/01/21 03:42:13;;;;;;;5.40;2.83;;;;;;;1.28;100.00;-23851.44;5073738;28;20250;-76
2023/01/21 03:44:39;;;;;;;6.93;3.47;;;;;;;0.95;100.00;-23842.00;5074270;28;20640;-76
2023/01/21 03:47:23;;;;;;;6.63;3.37;;;;;;;1.38;100.00;-23854.16;5074549;28;20196;-75
2023/01/21 03:49:56;;;;;;;5.20;3.53;;;;;;;1.47;100.00;-23856.59;5074447;28;20530;-76
2023/01/21 03:52:24;;;;;;;4.80;3.93;;;;;;;1.61;100.00;-23860.75;5073854;28;20164;-78
2023/01/21 03:55:14;;;;;;;5.60;3.53;;;;;;;1.33;100.00;-23852.75;5074651;28;20251;-75
2023/01/21 03:57:49;;;;;;;4.17;2.90;;;;;;;1.39;100.00;-23854.44;5072675;28;20198;-75
2023/01/21 04:00:15;;;;;;;5.53;2.40;;;;;;;1.34;100.00;-23853.03;5073721;28;20183;-76
2023/01/21 04:02:45;;;;;;;5.93;3.23;;;;;;;1.34;100.00;-23853.16;5074451;28;20562;-75
2023/01/21 04:05:13;;;;;;;2.87;2.57;;;;;;;0.93;100.00;-23841.44;5073773;28;20253;-75
2023/01/21 04:08:01;;;;;;;4.47;3.17;;;;;;;1.44;100.00;-23855.75;5073856;28;20734;-76
2023/01/21 04:10:26;;;;;;;2.67;2.40;;;;;;;1.24;100.00;-23850.31;5073769;28;20190;-75
2023/01/21 04:12:51;;;;;;;6.80;3.37;;;;;;;1.05;100.00;-23844.72;5074207;28;20174;-76
2023/01/21 04:15:17;;;;;;;6.07;3.07;;;;;;;1.21;100.00;-23849.44;5072933;28;20173;-76
2023/01/21 04:17:43;;;;;;;5.90;3.03;;;;;;;0.55;100.00;-23830.72;5073723;28;20202;-77
2023/01/21 04:20:09;;;;;;;4.63;3.13;;;;;;;0.68;100.00;-23834.28;5073834;28;20178;-75
2023/01/21 04:22:34;;;;;;;4.47;2.50;;;;;;;1.08;100.00;-23845.72;5072406;28;20209;-75
2023/01/21 04:25:00;;;;;;;5.20;3.37;;;;;;;0.98;100.00;-23842.88;5073620;28;20207;-75
2023/01/21 04:27:25;;;;;;;5.50;3.20;;;;;;;0.84;100.00;-23839.00;5073559;28;20305;-75
2023/01/21 04:29:50;;;;;;;5.37;3.43;;;;;;;1.29;100.00;-23851.59;5073955;28;20216;-76
2023/01/21 04:32:16;;;;;;;7.73;3.97;;;;;;;1.11;100.00;-23846.44;5071700;28;20182;-75
2023/01/21 04:34:41;;;;;;;3.63;3.13;;;;;;;1.31;100.00;-23852.31;5073422;28;20570;-76
2023/01/21 04:37:07;;;;;;;5.47;3.73;;;;;;;1.08;100.00;-23845.72;5071472;28;20647;-76
2023/01/21 04:39:32;;;;;;;4.03;2.80;;;;;;;0.94;100.00;-23841.59;5073552;28;20179;-75
2023/01/21 04:41:57;;;;;;;7.50;4.60;;;;;;;1.15;100.00;-23847.59;5072104;28;20665;-77
2023/01/21 04:44:23;;;;;;;7.47;4.20;;;;;;;0.97;100.00;-23842.59;5072136;28;20212;-78
2023/01/21 04:46:48;;;;;;;5.97;3.57;;;;;;;1.35;100.00;-23853.31;5073252;28;20280;-77
2023/01/21 04:49:14;;;;;;;3.70;3.33;;;;;;;1.54;100.00;-23858.75;5073383;28;20220;-75
2023/01/21 04:51:39;;;;;;;9.50;4.00;;;;;;;1.31;100.00;-23852.16;5072915;28;20643;-76
2023/01/21 04:54:14;;;;;;;4.87;2.60;;;;;;;1.10;100.00;-23846.31;5073385;28;20167;-75
2023/01/21 04:56:39;;;;;;;4.00;2.93;;;;;;;1.14;100.00;-23847.44;5073505;28;20196;-77
2023/01/21 04:59:04;;;;;;;3.03;2.70;;;;;;;1.19;100.00;-23848.75;5073037;28;20178;-74
2023/01/21 05:01:30;;;;;;;22.37;3.53;;;;;;;1.14;100.00;-23847.44;5073035;28;20269;-77
2023/01/21 05:03:56;;;;;;;3.67;3.13;;;;;;;0.98;100.00;-23842.88;5073083;28;20179;-76
2023/01/21 05:06:22;;;;;;;4.37;3.07;;;;;;;0.22;100.00;-23821.25;5072240;28;20609;-75
2023/01/21 05:08:47;;;;;;;8.47;4.17;;;;;;;0.97;100.00;-23842.59;5071538;28;20178;-76
2023/01/21 05:11:15;;;;;;;5.13;2.80;;;;;;;0.72;100.00;-23835.56;5073112;28;20248;-76
2023/01/21 05:13:40;;;;;;;4.47;3.63;;;;;;;0.76;100.00;-23836.72;5071454;28;20191;-76
2023/01/21 05:16:08;;;;;;;6.33;3.77;;;;;;;0.36;100.00;-23825.41;5072662;28;20177;-76
2023/01/21 05:18:35;;;;;;;6.87;3.23;;;;;;;0.21;100.00;-23820.97;5071899;28;20192;-76
2023/01/21 05:21:15;;;;;;;7.20;4.10;;;;;;;0.76;100.00;-23836.56;5071714;28;20271;-77
2023/01/21 05:23:40;;;;;;;4.33;3.40;;;;;;;0.32;100.00;-23824.13;5068533;28;20178;-76
2023/01/21 05:26:06;;;;;;;6.43;3.23;;;;;;;0.47;100.00;-23828.41;5072276;28;20193;-77
2023/01/21 05:28:31;;;;;;;3.53;2.40;;;;;;;0.23;100.00;-23821.69;5071658;28;20242;-76
2023/01/21 05:31:01;;;;;;;3.97;3.00;;;;;;;0.27;100.00;-23822.84;5072294;28;20193;-76
2023/01/21 05:33:31;;;;;;;5.97;3.33;;;;;;;0.39;100.00;-23826.28;5070795;28;20719;-76
2023/01/21 05:35:57;;;;;;;7.73;3.57;;;;;;;0.29;100.00;-23823.41;5072450;28;20186;-77
2023/01/21 05:38:46;;;;;;;3.60;2.83;;;;;;;0.42;100.00;-23827.13;5072502;28;20174;-76
2023/01/21 05:41:11;;;;;;;3.33;2.40;;;;;;;0.78;100.00;-23837.28;5072159;28;20178;-76
2023/01/21 05:43:36;;;;;;;6.10;3.40;;;;;;;0.91;100.00;-23840.88;5070694;28;20178;-77
2023/01/21 05:46:02;;;;;;;7.53;3.33;;;;;;;0.50;100.00;-23829.13;5070755;28;20186;-76
2023/01/21 05:48:28;;;;;;;6.00;3.27;;;;;;;0.90;100.00;-23840.59;5070906;28;20206;-76
2023/01/21 05:50:53;;;;;;;4.47;3.03;;;;;;;0.72;100.00;-23835.44;5072537;28;20174;-77
2023/01/21 05:53:19;;;;;;;5.27;3.30;;;;;;;1.02;100.00;-23843.88;5071425;28;20189;-77
2023/01/21 05:55:44;;;;;;;5.23;3.00;;;;;;;0.94;100.00;-23841.72;5071985;28;20244;-77
2023/01/21 05:58:10;;;;;;;6.70;3.47;;;;;;;1.02;100.00;-23843.88;5071049;28;20269;-75
2023/01/21 06:01:35;;;;;;;4.43;3.23;;;;;;;1.23;100.00;-23850.03;5072326;28;20216;-76
2023/01/21 06:04:18;;;;;;;7.33;3.37;;;;;;;1.22;100.00;-23849.72;5051573;28;20202;-76
2023/01/21 06:07:06;;;;;;;5.07;2.57;;;;;;;1.38;100.00;-23854.03;5068551;28;20234;-75
2023/01/21 06:09:51;;;;;;;6.57;3.30;;;;;;;1.48;100.00;-23856.88;5071166;28;20317;-76
2023/01/21 06:12:25;;;;;;;5.17;3.17;;;;;;;1.60;100.00;-23860.31;5071215;28;20264;-77
2023/01/21 06:15:12;;;;;;;4.87;3.70;;;;;;;1.33;100.00;-23852.88;5068410;28;20192;-75
2023/01/21 06:17:53;;;;;;;4.50;2.67;;;;;;;1.32;100.00;-23852.59;5070161;28;20178;-75
2023/01/21 06:21:15;;;;;;;4.70;3.13;;;;;;;1.24;100.00;-23850.16;5071391;28;20206;-77
2023/01/21 06:27:38;;;;;;;5.63;3.80;;;;;;;1.24;100.00;-23850.16;5069518;28;20215;-76
2023/01/21 06:31:08;;;;;;;5.40;2.47;;;;;;;1.20;100.00;-23849.16;5070401;28;20194;-77
2023/01/21 06:34:22;;;;;;;8.47;3.63;;;;;;;1.24;100.00;-23850.31;5069832;28;20204;-75
2023/01/21 06:37:04;;;;;;;3.17;2.60;;;;;;;1.22;100.00;-23849.59;5069069;28;20654;-78
2023/01/21 06:39:30;;;;;;;4.83;2.93;;;;;;;1.13;100.00;-23847.03;5069081;28;20199;-76
2023/01/21 06:41:58;;;;;;;3.97;3.07;;;;;;;1.25;100.00;-23850.44;5072271;28;20713;-76
2023/01/21 06:44:24;;;;;;;3.73;3.20;;;;;;;1.15;100.00;-23847.59;5070375;28;20176;-76
2023/01/21 06:46:50;;;;;;;3.77;2.73;;;;;;;1.02;100.00;-23843.88;5072200;28;20247;-79
2023/01/21 06:49:25;;;;;;;8.53;3.20;;;;;;;1.45;100.00;-23856.03;5072143;28;20261;-76
2023/01/21 06:51:50;;;;;;;7.20;3.50;;;;;;;1.37;100.00;-23853.88;5071553;28;20708;-78
2023/01/21 06:54:16;;;;;;;10.33;4.13;;;;;;;1.47;100.00;-23856.59;5071897;28;20203;-78
2023/01/21 06:56:42;;;;;;;4.23;3.30;;;;;;;1.45;100.00;-23856.16;5069970;28;20279;-78
2023/01/21 06:59:08;;;;;;;8.70;3.57;;;;;;;1.57;100.00;-23859.47;5070201;28;20639;-78
2023/01/21 07:01:33;;;;;;;4.23;3.03;;;;;;;1.88;100.00;-23868.16;5070302;28;20181;-76
2023/01/21 07:04:00;;;;;;;4.30;3.20;;;;;;;1.46;100.00;-23856.47;5069811;28;20331;-77
2023/01/21 07:06:26;;;;;;;7.10;4.10;;;;;;;1.77;100.00;-23865.16;5071597;28;20287;-77
2023/01/21 07:08:51;;;;;;;3.63;3.30;;;;;;;2.41;100.00;-23883.31;5069498;28;20177;-76
2023/01/21 07:11:16;;;;;;;6.90;4.53;;;;;;;2.18;100.00;-23876.75;5071034;28;20614;-76
2023/01/21 07:13:42;;;;;;;9.37;4.00;;;;;;;2.27;100.00;-23879.31;5069857;28;20280;-77
2023/01/21 07:16:07;;;;;;;5.53;3.50;;;;;;;2.54;100.00;-23887.03;5069753;28;20170;-77
2023/01/21 07:18:33;;;;;;;5.10;3.43;;;;;;;2.44;100.00;-23884.03;5071763;28;20186;-77
2023/01/21 07:20:58;;;;;;;4.27;2.93;;;;;;;3.03;100.00;-23900.88;5071491;28;20637;-75
2023/01/21 07:23:24;;;;;;;8.67;3.80;;;;;;;3.18;100.00;-23904.84;5071239;28;20197;-77
2023/01/21 07:25:50;;;;;;;10.47;3.97;;;;;;;2.95;100.00;-23898.59;5071761;28;20178;-77
2023/01/21 07:28:15;;;;;;;8.10;4.43;;;;;;;3.48;100.00;-23913.56;5073199;28;20202;-76
2023/01/21 07:30:40;;;;;;;8.33;4.80;;;;;;;3.34;100.00;-23909.56;5073985;28;20181;-78
2023/01/21 07:33:09;;;;;;;7.27;4.67;;;;;;;3.50;100.00;-23913.97;5073854;28;20355;-78
2023/01/21 07:35:35;;;;;;;8.90;5.37;;;;;;;3.75;100.00;-23921.09;5074579;28;20178;-76
2023/01/21 07:38:00;;;;;;;8.07;4.97;;;;;;;3.22;100.00;-23906.13;5074762;28;20169;-86
2023/01/21 07:40:26;;;;;;;6.63;4.20;;;;;;;3.83;100.00;-23923.38;5074551;28;20189;-80
2023/01/21 07:42:53;;;;;;;9.47;5.33;;;;;;;3.70;100.00;-23919.69;5073059;28;20663;-78
2023/01/21 07:45:20;;;;;;;9.60;5.10;;;;;;;3.56;100.00;-23915.69;5076398;28;20185;-80
2023/01/21 07:47:45;;;;;;;11.10;4.53;;;;;;;4.03;100.00;-23928.94;5073903;28;20198;-79
2023/01/21 07:50:11;;;;;;;7.33;4.73;;;;;;;3.70;100.00;-23919.69;5073838;28;20264;-77
2023/01/21 07:52:36;;;;;;;7.73;4.37;;;;;;;4.20;100.00;-23933.78;5073878;28;20174;-77
2023/01/21 07:55:03;;;;;;;6.27;4.57;;;;;;;4.41;100.00;-23939.75;5073497;28;20189;-77
2023/01/21 07:57:28;;;;;;;9.13;5.07;;;;;;;4.30;100.00;-23936.63;5071644;28;20190;-77
2023/01/21 07:59:54;;;;;;;15.73;6.30;;;;;;;4.55;100.00;-23943.47;5073114;28;20193;-77
2023/01/21 08:02:20;;;;;;;7.70;4.13;;;;;;;4.53;100.00;-23943.03;5071741;28;20637;-79
2023/01/21 08:04:45;;;;;;;12.20;5.63;;;;;;;4.15;100.00;-23932.22;5072668;28;20231;-78
2023/01/21 08:07:10;;;;;;;11.03;6.07;;;;;;;4.05;100.00;-23929.50;5073075;28;20202;-78
2023/01/21 08:09:36;;;;;;;9.07;4.83;;;;;;;3.90;100.00;-23925.22;5073384;28;20183;-79
2023/01/21 08:12:03;;;;;;;5.53;4.20;;;;;;;4.27;100.00;-23935.78;5073100;28;20178;-79
2023/01/21 08:14:28;;;;;;;10.57;5.30;;;;;;;4.42;100.00;-23940.03;5073052;28;20170;-78
2023/01/21 08:16:53;;;;;;;13.40;6.40;;;;;;;4.61;100.00;-23945.16;5073622;28;20174;-79
2023/01/21 08:19:19;;;;;;;10.53;5.77;;;;;;;4.76;100.00;-23949.44;5071423;28;20253;-76
2023/01/21 08:21:44;;;;;;;14.03;6.27;;;;;;;4.84;100.00;-23951.72;5072684;28;20209;-79
2023/01/21 08:24:10;;;;;;;13.37;5.40;;;;;;;4.72;100.00;-23948.44;5071437;28;20649;-79
2023/01/21 08:26:35;;;;;;;11.77;6.37;;;;;;;4.39;100.00;-23939.06;5072850;28;20263;-79
2023/01/21 08:29:00;;;;;;;15.13;7.13;;;;;;;4.97;100.00;-23955.41;5072503;28;20640;-79
2023/01/21 08:31:26;;;;;;;14.50;6.77;;;;;;;4.83;100.00;-23951.44;5071687;28;20500;-79
2023/01/21 08:33:51;;;;;;;14.93;7.30;;;;;;;5.00;100.00;-23956.25;5072933;28;20185;-82
2023/01/21 08:36:17;;;;;;;14.47;6.07;;;;;;;4.77;100.00;-23949.72;5071224;28;20177;-77
2023/01/21 08:38:43;;;;;;;19.47;7.50;;;;;;;4.76;100.00;-23949.59;5071354;28;20206;-79
2023/01/21 08:41:09;;;;;;;12.30;5.93;;;;;;;4.72;100.00;-23948.44;5071253;28;20625;-78
2023/01/21 08:43:35;;;;;;;13.70;5.93;;;;;;;4.39;100.00;-23939.19;5071407;28;20209;-77
2023/01/21 08:46:01;;;;;;;11.53;6.20;;;;;;;4.41;100.00;-23939.75;5072055;28;20232;-77
2023/01/21 08:48:28;;;;;;;19.03;7.13;;;;;;;4.83;100.00;-23951.56;5072563;28;20193;-77
2023/01/21 08:50:56;;;;;;;14.97;7.03;;;;;;;4.65;100.00;-23946.31;5072509;28;20181;-78
2023/01/21 08:53:21;;;;;;;9.40;5.63;;;;;;;4.75;100.00;-23949.16;5072365;28;20169;-77
2023/01/21 08:55:47;;;;;;;13.10;5.53;;;;;;;5.01;100.00;-23956.41;5072369;28;20174;-78
2023/01/21 08:58:12;;;;;;;14.50;6.23;;;;;;;5.07;100.00;-23958.13;5070009;28;20670;-78
2023/01/21 09:00:38;;;;;;;15.43;6.27;;;;;;;5.21;100.00;-23962.25;5071014;28;20670;-79
2023/01/21 09:03:03;;;;;;;16.47;7.23;;;;;;;5.44;100.00;-23968.63;5072303;28;20181;-78
2023/01/21 09:05:29;;;;;;;26.93;8.10;;;;;;;5.40;100.00;-23967.38;5072223;28;20218;-76
2023/01/21 09:07:54;;;;;;;37.57;10.00;;;;;;;5.20;100.00;-23961.97;5072091;28;20209;-76
2023/01/21 09:13:08;;;;;;;16.63;7.20;;;;;;;5.87;100.00;-23980.72;5072469;28;20235;-80
2023/01/21 09:15:39;;;;;;;12.03;7.07;;;;;;;5.46;100.00;-23969.22;5071733;28;20257;-78
2023/01/21 09:18:04;;;;;;;11.77;6.30;;;;;;;5.08;100.00;-23958.41;5072030;28;20166;-80
2023/01/21 09:20:30;;;;;;;16.80;6.40;;;;;;;5.28;100.00;-23964.09;5070837;28;20181;-76
2023/01/21 09:22:56;;;;;;;11.23;6.17;;;;;;;5.30;100.00;-23964.66;5070385;28;20182;-76
2023/01/21 09:25:22;;;;;;;17.00;7.70;;;;;;;5.74;100.00;-23977.16;5071645;28;20162;-79
2023/01/21 09:27:47;;;;;;;20.27;7.73;;;;;;;5.42;100.00;-23967.94;5071513;28;20200;-76
2023/01/21 09:30:13;;;;;;;23.73;7.93;;;;;;;5.21;100.00;-23962.25;5071521;28;20178;-78
2023/01/21 09:32:39;;;;;;;13.13;6.83;;;;;;;5.14;100.00;-23960.09;5070033;28;20206;-80
2023/01/21 09:35:04;;;;;;;11.60;5.87;;;;;;;5.60;100.00;-23973.19;5070886;28;20185;-78
2023/01/21 09:37:33;;;;;;;16.43;7.13;;;;;;;5.85;100.00;-23980.16;5070313;28;20200;-78
2023/01/21 09:39:59;;;;;;;17.03;6.70;;;;;;;5.83;100.00;-23979.59;5071335;28;20178;-80
2023/01/21 09:42:29;;;;;;;13.47;6.00;;;;;;;5.43;100.00;-23968.34;5070438;28;20196;-77
2023/01/21 09:44:58;;;;;;;11.07;5.67;;;;;;;5.50;100.00;-23970.22;5071287;28;20178;-78
2023/01/21 09:47:30;;;;;;;17.00;7.17;;;;;;;5.73;100.00;-23976.75;5071782;28;20196;-78
2023/01/21 09:50:06;;;;;;;11.57;6.53;;;;;;;5.73;100.00;-23976.88;5069845;28;20698;-79
2023/01/21 09:52:41;;;;;;;12.00;6.40;;;;;;;5.67;100.00;-23975.03;5071141;28;20160;-77
2023/01/21 09:55:21;;;;;;;12.37;6.23;;;;;;;5.98;100.00;-23983.72;5071447;28;20491;-76
2023/01/21 09:58:19;;;;;;;12.50;5.97;;;;;;;6.51;100.00;-23998.63;5070317;28;20170;-79
2023/01/21 10:00:57;;;;;;;11.07;5.47;;;;;;;6.91;100.00;-24009.97;5047316;28;20239;-78
2023/01/21 10:03:42;;;;;;;12.07;6.40;;;;;;;7.15;100.00;-24016.63;5070436;28;20243;-79
2023/01/21 10:06:17;;;;;;;14.87;7.53;;;;;;;7.50;100.00;-24026.56;5069955;28;20245;-80
2023/01/21 10:08:55;;;;;;;9.90;6.23;;;;;;;7.35;100.00;-24022.16;5074286;28;20225;-78
2023/01/21 10:11:45;;;;;;;10.93;6.27;;;;;;;7.38;100.00;-24023.16;5070383;28;20224;-78
2023/01/21 10:14:19;;;;;;;9.50;5.43;;;;;;;7.38;100.00;-24023.00;5071332;28;20222;-79
2023/01/21 10:17:00;;;;;;;10.67;5.33;;;;;;;7.48;100.00;-24026.00;5051038;28;20169;-76
2023/01/21 10:19:34;;;;;;;11.13;5.90;;;;;;;7.09;100.00;-24015.06;5056698;28;20189;-77
2023/01/21 10:22:08;;;;;;;13.13;7.07;;;;;;;7.40;100.00;-24023.72;5063802;28;20678;-79
2023/01/21 10:24:45;;;;;;;9.40;5.27;;;;;;;7.59;100.00;-24028.81;5063124;28;20180;-77
2023/01/21 10:27:19;;;;;;;11.43;5.93;;;;;;;7.81;100.00;-24035.06;5064848;28;20602;-79
2023/01/21 10:29:54;;;;;;;17.33;7.97;;;;;;;7.84;100.00;-24035.91;5063186;28;20630;-80
2023/01/21 10:32:24;;;;;;;11.93;6.83;;;;;;;7.73;100.00;-24032.94;5079236;28;20560;-81
2023/01/21 10:34:52;;;;;;;21.77;6.83;;;;;;;7.89;100.00;-24037.31;5063992;28;20190;-76
2023/01/21 10:37:42;;;;;;;16.63;6.80;;;;;;;7.91;100.00;-24038.03;5064518;28;20723;-79
2023/01/21 10:40:54;;;;;;;16.10;6.90;;;;;;;7.76;100.00;-24033.66;5063186;28;20197;-80
2023/01/21 10:43:25;;;;;;;14.40;6.97;;;;;;;7.91;100.00;-24037.88;5065466;28;20173;-78
2023/01/21 10:46:24;;;;;;;13.00;6.57;;;;;;;8.10;100.00;-24043.13;5063684;28;20301;-81
2023/01/21 10:49:19;;;;;;;16.83;6.73;;;;;;;8.47;100.00;-24053.63;5062465;28;20198;-82
2023/01/21 10:51:52;;;;;;;11.30;5.90;;;;;;;8.56;100.00;-24056.03;5079831;28;20186;-82
2023/01/21 10:54:32;;;;;;;12.57;6.43;;;;;;;8.29;100.00;-24048.50;5063787;28;20231;-80
2023/01/21 10:57:13;;;;;;;11.77;6.67;;;;;;;8.82;100.00;-24063.53;5062980;28;20193;-80
2023/01/21 10:59:40;;;;;;;24.50;7.17;;;;;;;8.73;100.00;-24060.84;5064650;28;20186;-81
2023/01/21 11:02:11;;;;;;;14.17;6.47;;;;;;;8.61;100.00;-24057.56;5067730;28;20174;-79
2023/01/21 11:04:39;;;;;;;10.63;5.83;;;;;;;8.44;100.00;-24052.78;5066979;28;20629;-79
2023/01/21 11:07:09;;;;;;;13.47;6.73;;;;;;;8.58;100.00;-24056.72;5067355;28;20214;-79
2023/01/21 11:09:41;;;;;;;10.53;5.67;;;;;;;8.85;100.00;-24064.38;5100695;28;20185;-82
2023/01/21 11:12:09;;;;;;;17.87;7.70;;;;;;;9.39;100.00;-24079.22;5067379;28;20210;-81
2023/01/21 11:14:35;;;;;;;15.52;7.25;;;;;;;9.76;100.00;-24089.81;5066402;28;20186;-78
2023/01/21 11:17:00;;;;;;;17.65;6.93;;;;;;;9.95;100.00;-24095.03;5068123;28;20178;-79
2023/01/21 11:19:29;;;;;;;12.68;6.88;;;;;;;9.62;100.00;-24085.72;5068252;28;20260;-82
2023/01/21 11:22:11;;;;;;;12.30;7.32;;;;;;;9.46;100.00;-24081.34;5067089;28;20253;-83
2023/01/21 11:24:46;;;;;;;12.35;6.40;;;;;;;9.69;100.00;-24087.69;5065636;28;20648;-82
2023/01/21 11:27:27;;;;;;;22.67;6.63;;;;;;;9.63;100.00;-24086.13;5068243;28;20208;-80
2023/01/21 11:29:52;;;;;;;10.95;5.68;;;;;;;9.52;100.00;-24082.91;5066962;28;20185;-81
2023/01/21 11:32:23;;;;;;;17.53;6.87;;;;;;;9.32;100.00;-24077.38;5068183;28;20640;-77
2023/01/21 11:34:51;;;;;;;15.37;6.73;;;;;;;8.62;100.00;-24057.88;5101251;28;20193;-82
2023/01/21 11:37:22;;;;;;;9.60;5.77;;;;;;;8.82;100.00;-24063.38;5068569;28;20692;-80
2023/01/21 11:39:59;;;;;;;15.20;6.73;;;;;;;8.68;100.00;-24059.56;5100389;28;20201;-79
2023/01/21 11:42:25;;;;;;;10.53;6.47;;;;;;;8.42;100.00;-24052.34;5099578;27;20215;-80
2023/01/21 11:45:05;;;;;;;12.80;6.77;;;;;;;9.02;100.00;-24068.91;5058475;28;20189;-79
2023/01/21 11:47:38;;;;;;;15.33;6.53;;;;;;;9.40;100.00;-24079.50;5066403;28;20194;-78
2023/01/21 11:50:11;;;;;;;10.80;6.20;;;;;;;9.64;100.00;-24086.44;5067379;28;20335;-81
2023/01/21 11:52:36;;;;;;;10.63;5.50;;;;;;;10.02;100.00;-24096.88;5067113;28;20167;-81
2023/01/21 11:55:02;;;;;;;15.23;7.20;;;;;;;10.13;100.00;-24099.97;5066672;28;20552;-79
2023/01/21 11:57:30;;;;;;;13.32;6.90;;;;;;;10.01;100.00;-24096.59;5066972;28;20575;-81
2023/01/21 12:00:06;;;;;;;13.93;7.82;;;;;;;9.91;100.00;-24093.78;5066987;28;20268;-84